createdAt,value
2017-11-19T13:24:28.511Z,94.18
2017-11-19T13:25:28.135Z,94.37
2017-11-19T13:26:28.072Z,94.65
2017-11-19T13:27:28.051Z,95.12
2017-11-19T13:28:28.032Z,93.99
2017-11-19T13:29:28.037Z,94.27
2017-11-19T13:30:28.022Z,94.18
2017-11-19T13:31:27.971Z,93.99
2017-11-19T13:32:27.947Z,94.27
2017-11-19T13:33:27.928Z,93.79
2017-11-19T13:34:35.545Z,94.27
2017-11-19T13:35:27.887Z,93.89
2017-11-19T13:36:27.860Z,94.18
2017-11-19T13:37:27.879Z,94.08
2017-11-19T13:38:27.819Z,93.89
2017-11-19T13:39:27.793Z,94.18
2017-11-19T13:40:27.782Z,94.08
2017-11-19T13:41:27.754Z,93.70
2017-11-19T13:42:27.771Z,94.22
2017-11-19T13:43:27.711Z,93.46
2017-11-19T13:44:27.688Z,93.75
2017-11-19T13:45:27.667Z,93.46
2017-11-19T13:46:27.655Z,94.32
2017-11-19T13:47:27.663Z,93.65
2017-11-19T13:48:27.605Z,93.94
2017-11-19T13:49:35.592Z,94.13
2017-11-19T13:50:27.565Z,93.75
2017-11-19T13:51:27.566Z,94.32
2017-11-19T13:52:27.522Z,94.13
2017-11-19T13:53:27.521Z,94.22
2017-11-19T13:54:27.483Z,94.22
2017-11-19T13:55:27.497Z,94.51
2017-11-19T13:56:27.438Z,94.42
2017-11-19T13:57:27.416Z,94.84
2017-11-19T13:58:27.398Z,94.65
2017-11-19T13:59:27.377Z,95.08
2017-11-19T14:00:27.396Z,95.12
2017-11-19T14:01:27.345Z,94.93
2017-11-19T14:02:27.315Z,94.84
2017-11-19T14:03:27.334Z,95.03
2017-11-19T14:04:27.272Z,95.22
2017-11-19T14:05:27.365Z,94.74
2017-11-19T14:06:27.233Z,95.12
2017-11-19T14:07:27.236Z,94.56
2017-11-19T14:08:27.189Z,95.22
2017-11-19T14:09:27.168Z,95.22
2017-11-19T14:10:27.187Z,94.56
2017-11-19T14:11:27.159Z,94.74
2017-11-19T14:12:27.107Z,94.93
2017-11-19T14:13:27.084Z,94.23
2017-11-19T14:14:27.060Z,94.89
2017-11-19T14:15:27.080Z,94.79
2017-11-19T14:16:27.024Z,94.70
2017-11-19T14:17:27.002Z,94.42
2017-11-19T14:18:27.007Z,94.42
2017-11-19T14:19:27.003Z,94.13
2017-11-19T14:20:26.936Z,94.42
2017-11-19T14:21:26.914Z,94.32
2017-11-19T14:22:26.893Z,94.13
2017-11-19T14:23:26.884Z,93.65
2017-11-19T14:24:26.887Z,94.23
2017-11-19T14:25:26.832Z,94.13
2017-11-19T14:26:26.809Z,94.03
2017-11-19T14:27:26.789Z,94.32
2017-11-19T14:28:26.807Z,94.60
2017-11-19T14:29:26.741Z,94.13
2017-11-19T14:30:26.760Z,94.98
2017-11-19T14:31:26.739Z,94.60
2017-11-19T14:32:26.680Z,94.60
2017-11-19T14:33:26.661Z,94.70
2017-11-19T14:34:26.639Z,94.60
2017-11-19T14:35:26.750Z,94.13
2017-11-19T14:36:26.604Z,95.08
2017-11-19T14:37:26.575Z,94.32
2017-11-19T14:38:26.555Z,94.60
2017-11-19T14:39:26.533Z,94.98
2017-11-19T14:40:34.133Z,94.51
2017-11-19T14:41:34.174Z,94.51
2017-11-19T14:42:26.466Z,94.60
2017-11-19T14:43:26.451Z,94.79
2017-11-19T14:44:26.424Z,95.17
2017-11-19T14:45:26.402Z,95.46
2017-11-19T14:46:26.431Z,94.79
2017-11-19T14:47:26.375Z,95.36
2017-11-19T14:48:26.339Z,94.98
2017-11-19T14:49:26.310Z,94.89
2017-11-19T14:50:26.291Z,95.36
2017-11-19T14:51:26.317Z,94.98
2017-11-19T14:52:26.265Z,95.36
2017-11-19T14:53:26.224Z,95.08
2017-11-19T14:54:26.206Z,94.79
2017-11-19T14:55:26.184Z,95.27
2017-11-19T14:56:26.198Z,95.46
2017-11-19T14:57:26.138Z,94.98
2017-11-19T14:58:26.168Z,95.46
2017-11-19T14:59:26.101Z,95.36
2017-11-19T15:00:26.077Z,95.08
2017-11-19T15:01:26.047Z,95.36
2017-11-19T15:02:26.029Z,95.08
2017-11-19T15:03:26.152Z,94.79
2017-11-19T15:04:25.987Z,95.27
2017-11-19T15:05:25.968Z,95.36
2017-11-19T15:06:25.949Z,95.17
2017-11-19T15:07:25.921Z,95.36
2017-11-19T15:08:25.940Z,95.27
2017-11-19T15:09:25.877Z,95.36
2017-11-19T15:10:25.858Z,94.98
2017-11-19T15:11:25.871Z,95.17
2017-11-19T15:12:25.817Z,94.98
2017-11-19T15:13:33.712Z,95.27
2017-11-19T15:14:25.780Z,95.08
2017-11-19T15:15:25.745Z,95.36
2017-11-19T15:16:25.728Z,95.08
2017-11-19T15:17:25.703Z,95.46
2017-11-19T15:18:25.690Z,95.17
2017-11-19T15:19:25.698Z,95.27
2017-11-19T15:20:25.682Z,94.93
2017-11-19T15:21:25.628Z,95.17
2017-11-19T15:22:25.598Z,95.03
2017-11-19T15:23:25.571Z,95.36
2017-11-19T15:24:25.551Z,95.27
2017-11-19T15:25:25.563Z,95.08
2017-11-19T15:26:25.511Z,95.22
2017-11-19T15:27:25.524Z,95.12
2017-11-19T15:28:25.460Z,95.31
2017-11-19T15:29:25.442Z,94.56
2017-11-19T15:30:25.419Z,95.31
2017-11-19T15:31:25.434Z,95.31
2017-11-19T15:32:25.374Z,95.27
2017-11-19T15:33:25.352Z,95.12
2017-11-19T15:34:25.375Z,95.22
2017-11-19T15:35:25.318Z,95.31
2017-11-19T15:36:25.283Z,94.37
2017-11-19T15:37:25.269Z,95.12
2017-11-19T15:38:25.251Z,95.03
2017-11-19T15:39:25.261Z,94.56
2017-11-19T15:40:25.201Z,95.12
2017-11-19T15:41:25.172Z,95.70
2017-11-19T15:42:25.151Z,95.31
2017-11-19T15:43:25.130Z,95.60
2017-11-19T15:44:25.150Z,94.93
2017-11-19T15:45:25.110Z,95.12
2017-11-19T15:46:25.104Z,95.22
2017-11-19T15:47:25.045Z,95.31
2017-11-19T15:48:25.024Z,95.22
2017-11-19T15:49:24.995Z,95.41
2017-11-19T15:50:25.017Z,95.31
2017-11-19T15:51:24.956Z,95.31
2017-11-19T15:52:24.935Z,95.31
2017-11-19T15:53:24.906Z,95.31
2017-11-19T15:54:24.888Z,95.51
2017-11-19T15:55:24.902Z,95.31
2017-11-19T15:56:24.894Z,95.12
2017-11-19T15:57:24.818Z,95.31
2017-11-19T15:58:24.800Z,95.03
2017-11-19T15:59:24.777Z,95.31
2017-11-19T16:00:24.752Z,95.31
2017-11-19T16:01:24.776Z,95.03
2017-11-19T16:02:24.712Z,95.31
2017-11-19T16:03:24.728Z,94.93
2017-11-19T16:04:34.196Z,95.12
2017-11-19T16:05:34.237Z,95.22
2017-11-19T16:06:24.619Z,95.12
2017-11-19T16:07:24.599Z,95.12
2017-11-19T16:08:24.616Z,95.03
2017-11-19T16:09:24.551Z,94.74
2017-11-19T16:10:24.526Z,94.93
2017-11-19T16:11:24.505Z,95.12
2017-11-19T16:12:24.491Z,95.31
2017-11-19T16:13:24.499Z,95.12
2017-11-19T16:14:24.465Z,94.74
2017-11-19T16:15:24.411Z,95.22
2017-11-19T16:16:25.231Z,95.22
2017-11-19T16:17:24.369Z,95.31
2017-11-19T16:18:24.348Z,95.03
2017-11-19T16:19:24.363Z,94.46
2017-11-19T16:20:24.303Z,94.65
2017-11-19T16:21:24.336Z,94.89
2017-11-19T16:22:24.259Z,95.03
2017-11-19T16:23:24.239Z,94.84
2017-11-19T16:24:24.217Z,94.93
2017-11-19T16:25:24.191Z,94.70
2017-11-19T16:26:24.223Z,94.70
2017-11-19T16:27:24.143Z,94.98
2017-11-19T16:28:24.125Z,94.74
2017-11-19T16:29:24.098Z,94.46
2017-11-19T16:30:24.077Z,94.51
2017-11-19T16:31:24.096Z,94.42
2017-11-19T16:32:24.034Z,94.23
2017-11-19T16:33:24.046Z,94.51
2017-11-19T16:34:23.987Z,94.42
2017-11-19T16:35:23.969Z,94.23
2017-11-19T16:36:23.990Z,94.56
2017-11-19T16:37:23.917Z,94.42
2017-11-19T16:38:23.895Z,94.42
2017-11-19T16:39:23.874Z,94.13
2017-11-19T16:40:23.849Z,94.23
2017-11-19T16:41:23.863Z,94.13
2017-11-19T16:42:23.806Z,94.23
2017-11-19T16:43:23.832Z,94.51
2017-11-19T16:44:23.760Z,93.94
2017-11-19T16:45:23.753Z,94.51
2017-11-19T16:46:23.716Z,93.99
2017-11-19T16:47:23.693Z,94.60
2017-11-19T16:48:23.730Z,94.32
2017-11-19T16:49:23.647Z,93.84
2017-11-19T16:50:23.630Z,93.75
2017-11-19T16:51:23.605Z,94.13
2017-11-19T16:52:23.584Z,94.42
2017-11-19T16:53:23.593Z,93.84
2017-11-19T16:54:23.534Z,94.03
2017-11-19T16:55:31.320Z,94.51
2017-11-19T16:56:33.308Z,94.23
2017-11-19T16:57:23.473Z,94.32
2017-11-19T16:58:23.444Z,94.08
2017-11-19T16:59:23.422Z,93.75
2017-11-19T17:00:23.401Z,94.03
2017-11-19T17:01:23.417Z,93.56
2017-11-19T17:02:23.410Z,93.65
2017-11-19T17:03:23.339Z,93.94
2017-11-19T17:04:23.317Z,93.65
2017-11-19T17:05:23.283Z,94.13
2017-11-19T17:06:23.265Z,93.56
2017-11-19T17:07:23.275Z,93.65
2017-11-19T17:08:23.212Z,93.75
2017-11-19T17:09:23.227Z,93.18
2017-11-19T17:10:23.169Z,93.27
2017-11-19T17:11:23.147Z,93.18
2017-11-19T17:12:23.125Z,93.56
2017-11-19T17:13:23.111Z,93.27
2017-11-19T17:14:23.122Z,93.46
2017-11-19T17:15:23.051Z,93.46
2017-11-19T17:16:23.031Z,93.65
2017-11-19T17:17:23.011Z,94.03
2017-11-19T17:18:22.983Z,92.99
2017-11-19T17:19:23.011Z,93.37
2017-11-19T17:20:22.942Z,94.03
2017-11-19T17:21:22.923Z,93.56
2017-11-19T17:22:22.901Z,93.84
2017-11-19T17:23:22.872Z,93.94
2017-11-19T17:24:22.892Z,93.94
2017-11-19T17:25:22.826Z,93.75
2017-11-19T17:26:22.825Z,93.56
2017-11-19T17:27:22.778Z,94.03
2017-11-19T17:28:22.763Z,93.94
2017-11-19T17:29:22.781Z,93.94
2017-11-19T17:30:22.715Z,94.42
2017-11-19T17:31:22.689Z,94.60
2017-11-19T17:32:22.670Z,94.13
2017-11-19T17:33:22.643Z,94.23
2017-11-19T17:34:22.660Z,94.51
2017-11-19T17:35:22.599Z,94.42
2017-11-19T17:36:22.574Z,94.51
2017-11-19T17:37:22.559Z,94.79
2017-11-19T17:38:22.532Z,94.79
2017-11-19T17:39:22.543Z,94.70
2017-11-19T17:40:22.484Z,94.70
2017-11-19T17:41:22.519Z,94.79
2017-11-19T17:42:22.447Z,94.60
2017-11-19T17:43:22.416Z,95.07
2017-11-19T17:44:22.393Z,94.70
2017-11-19T17:45:22.374Z,94.60
2017-11-19T17:46:30.388Z,94.13
2017-11-19T17:47:31.878Z,94.42
2017-11-19T17:48:22.303Z,94.42
2017-11-19T17:49:22.278Z,94.60
2017-11-19T17:50:22.307Z,94.42
2017-11-19T17:51:22.234Z,94.23
2017-11-19T17:52:22.216Z,94.13
2017-11-19T17:53:22.184Z,94.23
2017-11-19T17:54:22.166Z,94.03
2017-11-19T17:55:22.174Z,94.42
2017-11-19T17:56:22.115Z,94.32
2017-11-19T17:57:22.097Z,94.23
2017-11-19T17:58:22.113Z,94.03
2017-11-19T17:59:22.049Z,94.13
2017-11-19T18:00:22.023Z,94.13
2017-11-19T18:01:22.000Z,93.75
2017-11-19T18:02:21.981Z,94.23
2017-11-19T18:03:22.007Z,94.13
2017-11-19T18:04:21.941Z,94.03
2017-11-19T18:05:21.918Z,93.94
2017-11-19T18:06:21.895Z,93.84
2017-11-19T18:07:21.865Z,93.94
2017-11-19T18:08:21.893Z,93.56
2017-11-19T18:09:21.818Z,93.75
2017-11-19T18:10:21.793Z,93.18
2017-11-19T18:11:21.780Z,92.80
2017-11-19T18:12:21.749Z,93.08
2017-11-19T18:13:21.764Z,93.27
2017-11-19T18:14:21.708Z,92.90
2017-11-19T18:15:21.678Z,93.08
2017-11-19T18:16:21.703Z,92.90
2017-11-19T18:17:21.637Z,92.71
2017-11-19T18:18:21.624Z,92.52
2017-11-19T18:19:21.590Z,92.42
2017-11-19T18:20:21.567Z,92.42
2017-11-19T18:21:21.576Z,92.52
2017-11-19T18:22:21.519Z,92.52
2017-11-19T18:23:21.496Z,92.42
2017-11-19T18:24:21.514Z,92.71
2017-11-19T18:25:21.493Z,92.23
2017-11-19T18:26:21.433Z,92.52
2017-11-19T18:27:21.418Z,92.33
2017-11-19T18:28:21.380Z,92.33
2017-11-19T18:29:21.419Z,92.42
2017-11-19T18:30:21.340Z,92.61
2017-11-19T18:31:21.311Z,92.42
2017-11-19T18:32:21.290Z,92.61
2017-11-19T18:33:21.266Z,92.61
2017-11-19T18:34:21.286Z,92.52
2017-11-19T18:35:21.226Z,92.71
2017-11-19T18:36:21.196Z,92.23
2017-11-19T18:37:31.922Z,92.42
2017-11-19T18:38:31.444Z,92.80
2017-11-19T18:39:21.175Z,92.61
2017-11-19T18:40:21.108Z,93.08
2017-11-19T18:41:21.104Z,92.80
2017-11-19T18:42:21.064Z,92.80
2017-11-19T18:43:21.038Z,93.08
2017-11-19T18:44:21.048Z,92.90
2017-11-19T18:45:20.988Z,92.61
2017-11-19T18:46:20.973Z,93.08
2017-11-19T18:47:20.981Z,92.99
2017-11-19T18:48:20.923Z,92.80
2017-11-19T18:49:20.900Z,92.80
2017-11-19T18:50:20.883Z,93.46
2017-11-19T18:51:20.900Z,92.71
2017-11-19T18:52:20.829Z,93.94
2017-11-19T18:53:20.806Z,93.65
2017-11-19T18:54:20.783Z,93.75
2017-11-19T18:55:20.760Z,94.13
2017-11-19T18:56:20.795Z,94.03
2017-11-19T18:57:20.711Z,93.84
2017-11-19T18:58:20.689Z,94.23
2017-11-19T18:59:20.672Z,94.79
2017-11-19T19:00:20.647Z,94.42
2017-11-19T19:01:20.684Z,95.07
2017-11-19T19:02:20.598Z,94.51
2017-11-19T19:03:20.573Z,94.51
2017-11-19T19:04:20.554Z,94.79
2017-11-19T19:05:20.527Z,95.07
2017-11-19T19:06:20.542Z,94.70
2017-11-19T19:07:20.535Z,94.98
2017-11-19T19:08:20.463Z,95.07
2017-11-19T19:09:20.445Z,94.79
2017-11-19T19:10:20.416Z,94.79
2017-11-19T19:11:20.393Z,94.51
2017-11-19T19:12:20.419Z,94.89
2017-11-19T19:13:20.345Z,94.51
2017-11-19T19:14:20.322Z,94.70
2017-11-19T19:15:20.316Z,94.51
2017-11-19T19:16:20.288Z,94.42
2017-11-19T19:17:20.288Z,94.32
2017-11-19T19:18:20.233Z,94.51
2017-11-19T19:19:20.209Z,94.23
2017-11-19T19:20:20.198Z,94.03
2017-11-19T19:21:20.211Z,94.13
2017-11-19T19:22:20.154Z,93.94
2017-11-19T19:23:20.117Z,93.56
2017-11-19T19:24:20.094Z,93.65
2017-11-19T19:25:20.070Z,93.51
2017-11-19T19:26:20.091Z,93.46
2017-11-19T19:27:20.064Z,93.65
2017-11-19T19:28:20.040Z,94.03
2017-11-19T19:29:20.009Z,93.75
2017-11-19T19:30:19.955Z,93.08
2017-11-19T19:31:19.948Z,93.04
2017-11-19T19:32:19.960Z,93.27
2017-11-19T19:33:19.989Z,93.51
2017-11-19T19:34:19.889Z,93.23
2017-11-19T19:35:19.856Z,93.04
2017-11-19T19:36:19.839Z,93.13
2017-11-19T19:37:19.808Z,92.85
2017-11-19T19:38:19.809Z,93.23
2017-11-19T19:39:19.759Z,93.13
2017-11-19T19:40:19.764Z,93.32
2017-11-19T19:41:19.710Z,93.32
2017-11-19T19:42:19.685Z,92.99
2017-11-19T19:43:19.690Z,93.23
2017-11-19T19:44:19.637Z,93.27
2017-11-19T19:45:19.650Z,93.23
2017-11-19T19:46:19.585Z,93.13
2017-11-19T19:47:19.560Z,93.37
2017-11-19T19:48:19.546Z,93.46
2017-11-19T19:49:19.514Z,93.61
2017-11-19T19:50:19.628Z,93.13
2017-11-19T19:51:19.468Z,93.08
2017-11-19T19:52:19.451Z,93.04
2017-11-19T19:53:19.425Z,93.32
2017-11-19T19:54:19.405Z,93.13
2017-11-19T19:55:19.411Z,93.13
2017-11-19T19:56:19.360Z,93.13
2017-11-19T19:57:19.329Z,93.32
2017-11-19T19:58:19.310Z,93.13
2017-11-19T19:59:19.321Z,93.51
2017-11-19T20:00:19.264Z,93.51
2017-11-19T20:01:19.239Z,93.61
2017-11-19T20:02:19.262Z,92.94
2017-11-19T20:03:19.193Z,92.85
2017-11-19T20:04:19.171Z,93.04
2017-11-19T20:05:19.149Z,93.04
2017-11-19T20:06:19.121Z,92.85
2017-11-19T20:07:19.144Z,92.94
2017-11-19T20:08:19.079Z,92.94
2017-11-19T20:09:19.056Z,93.04
2017-11-19T20:10:19.032Z,93.51
2017-11-19T20:11:19.011Z,92.66
2017-11-19T20:12:19.024Z,92.85
2017-11-19T20:13:18.960Z,92.66
2017-11-19T20:14:18.935Z,93.23
2017-11-19T20:15:18.925Z,92.94
2017-11-19T20:16:18.893Z,92.94
2017-11-19T20:17:18.910Z,92.66
2017-11-19T20:18:18.849Z,93.04
2017-11-19T20:19:18.823Z,93.32
2017-11-19T20:20:18.802Z,93.51
2017-11-19T20:21:18.783Z,93.04
2017-11-19T20:22:18.788Z,93.94
2017-11-19T20:23:18.780Z,93.84
2017-11-19T20:24:18.743Z,94.03
2017-11-19T20:25:18.692Z,93.56
2017-11-19T20:26:18.699Z,93.56
2017-11-19T20:27:18.640Z,93.65
2017-11-19T20:28:18.613Z,94.03
2017-11-19T20:29:18.632Z,93.75
2017-11-19T20:30:18.605Z,93.75
2017-11-19T20:31:18.543Z,93.18
2017-11-19T20:32:18.521Z,93.65
2017-11-19T20:33:18.499Z,93.65
2017-11-19T20:34:18.510Z,93.65
2017-11-19T20:35:18.496Z,93.56
2017-11-19T20:36:18.430Z,93.84
2017-11-19T20:37:18.406Z,93.46
2017-11-19T20:38:18.384Z,93.75
2017-11-19T20:39:18.392Z,93.65
2017-11-19T20:40:18.375Z,94.03
2017-11-19T20:41:18.313Z,93.56
2017-11-19T20:42:18.333Z,93.37
2017-11-19T20:43:18.274Z,93.41
2017-11-19T20:44:18.284Z,93.51
2017-11-19T20:45:18.295Z,93.70
2017-11-19T20:46:18.199Z,93.41
2017-11-19T20:47:18.183Z,93.51
2017-11-19T20:48:18.158Z,93.32
2017-11-19T20:49:18.167Z,92.76
2017-11-19T20:50:18.112Z,92.66
2017-11-19T20:51:18.089Z,92.66
2017-11-19T20:52:18.068Z,92.76
2017-11-19T20:53:18.038Z,92.94
2017-11-19T20:54:18.147Z,93.23
2017-11-19T20:55:17.992Z,92.57
2017-11-19T20:56:17.970Z,92.47
2017-11-19T20:57:17.951Z,92.76
2017-11-19T20:58:17.923Z,93.23
2017-11-19T20:59:17.973Z,92.76
2017-11-19T21:00:17.941Z,92.09
2017-11-19T21:01:17.905Z,92.38
2017-11-19T21:02:17.850Z,92.47
2017-11-19T21:03:17.825Z,92.47
2017-11-19T21:04:17.804Z,92.28
2017-11-19T21:05:17.821Z,91.99
2017-11-19T21:06:17.762Z,92.18
2017-11-19T21:07:17.733Z,92.18
2017-11-19T21:08:17.713Z,91.80
2017-11-19T21:09:17.695Z,92.47
2017-11-19T21:10:17.725Z,92.18
2017-11-19T21:11:17.639Z,92.18
2017-11-19T21:12:17.622Z,92.09
2017-11-19T21:13:17.596Z,92.09
2017-11-19T21:14:17.574Z,91.80
2017-11-19T21:15:17.595Z,92.28
2017-11-19T21:16:17.565Z,92.28
2017-11-19T21:17:17.492Z,92.57
2017-11-19T21:18:17.467Z,92.47
2017-11-19T21:19:17.441Z,92.18
2017-11-19T21:20:17.414Z,91.71
2017-11-19T21:21:17.438Z,91.61
2017-11-19T21:22:17.384Z,92.18
2017-11-19T21:23:17.373Z,92.47
2017-11-19T21:24:17.342Z,92.18
2017-11-19T21:25:17.307Z,92.09
2017-11-19T21:26:17.325Z,92.38
2017-11-19T21:27:17.251Z,92.47
2017-11-19T21:28:18.927Z,92.47
2017-11-19T21:29:17.212Z,92.57
2017-11-19T21:30:17.221Z,92.28
2017-11-19T21:31:17.163Z,92.28
2017-11-19T21:32:17.137Z,92.18
2017-11-19T21:33:17.113Z,92.38
2017-11-19T21:34:17.125Z,92.18
2017-11-19T21:35:17.067Z,91.80
2017-11-19T21:36:17.046Z,92.09
2017-11-19T21:37:17.027Z,91.80
2017-11-19T21:38:17.040Z,91.05
2017-11-19T21:39:16.980Z,91.14
2017-11-19T21:40:16.959Z,91.47
2017-11-19T21:41:16.944Z,91.19
2017-11-19T21:42:16.943Z,90.81
2017-11-19T21:43:16.880Z,91.14
2017-11-19T21:44:16.862Z,91.05
2017-11-19T21:45:16.837Z,91.24
2017-11-19T21:46:16.848Z,91.42
2017-11-19T21:47:16.806Z,91.71
2017-11-19T21:48:16.802Z,91.90
2017-11-19T21:49:16.738Z,91.61
2017-11-19T21:50:16.754Z,91.24
2017-11-19T21:51:16.701Z,91.90
2017-11-19T21:52:16.677Z,91.90
2017-11-19T21:53:16.648Z,91.52
2017-11-19T21:54:16.663Z,91.80
2017-11-19T21:55:16.603Z,91.33
2017-11-19T21:56:16.581Z,91.42
2017-11-19T21:57:16.560Z,91.42
2017-11-19T21:58:16.537Z,91.80
2017-11-19T21:59:16.543Z,91.80
2017-11-19T22:00:16.488Z,91.24
2017-11-19T22:01:16.460Z,91.24
2017-11-19T22:02:25.991Z,91.24
2017-11-19T22:03:16.459Z,91.24
2017-11-19T22:04:16.393Z,91.42
2017-11-19T22:05:16.368Z,91.33
2017-11-19T22:06:16.347Z,91.33
2017-11-19T22:07:16.335Z,91.42
2017-11-19T22:08:16.353Z,91.05
2017-11-19T22:09:16.320Z,91.42
2017-11-19T22:10:16.254Z,91.24
2017-11-19T22:11:16.232Z,90.86
2017-11-19T22:12:16.202Z,90.95
2017-11-19T22:13:16.228Z,90.86
2017-11-19T22:14:16.163Z,91.05
2017-11-19T22:15:16.137Z,91.24
2017-11-19T22:16:16.117Z,91.14
2017-11-19T22:17:16.084Z,91.24
2017-11-19T22:18:16.109Z,91.05
2017-11-19T22:19:16.040Z,90.86
2017-11-19T22:20:16.015Z,91.42
2017-11-19T22:21:16.005Z,91.52
2017-11-19T22:22:15.986Z,91.80
2017-11-19T22:23:15.989Z,92.09
2017-11-19T22:24:15.925Z,91.24
2017-11-19T22:25:15.899Z,91.80
2017-11-19T22:26:15.878Z,91.71
2017-11-19T22:27:15.866Z,91.42
2017-11-19T22:28:15.873Z,91.42
2017-11-19T22:29:15.804Z,91.33
2017-11-19T22:30:15.784Z,91.33
2017-11-19T22:31:15.768Z,91.05
2017-11-19T22:32:15.775Z,91.24
2017-11-19T22:33:15.753Z,91.42
2017-11-19T22:34:15.691Z,91.14
2017-11-19T22:35:15.674Z,91.42
2017-11-19T22:36:15.655Z,91.42
2017-11-19T22:37:15.623Z,91.42
2017-11-19T22:38:15.635Z,91.42
2017-11-19T22:39:15.574Z,91.52
2017-11-19T22:40:15.554Z,91.42
2017-11-19T22:41:15.572Z,90.48
2017-11-19T22:42:25.533Z,90.67
2017-11-19T22:43:15.491Z,90.95
2017-11-19T22:44:15.457Z,91.05
2017-11-19T22:45:15.434Z,90.95
2017-11-19T22:46:15.447Z,90.72
2017-11-19T22:47:15.388Z,90.86
2017-11-19T22:48:15.368Z,90.62
2017-11-19T22:49:15.341Z,90.76
2017-11-19T22:50:15.326Z,91.05
2017-11-19T22:51:15.334Z,90.76
2017-11-19T22:52:15.275Z,90.67
2017-11-19T22:53:15.299Z,90.67
2017-11-19T22:54:15.258Z,90.76
2017-11-19T22:55:15.202Z,90.76
2017-11-19T22:56:15.217Z,90.29
2017-11-19T22:57:15.159Z,90.57
2017-11-19T22:58:15.168Z,90.57
2017-11-19T22:59:15.149Z,90.57
2017-11-19T23:00:15.089Z,90.00
2017-11-19T23:01:15.064Z,90.24
2017-11-19T23:02:15.043Z,90.76
2017-11-19T23:03:15.079Z,90.95
2017-11-19T23:04:14.995Z,90.95
2017-11-19T23:05:14.975Z,90.76
2017-11-19T23:06:14.946Z,90.48
2017-11-19T23:07:14.921Z,91.05
2017-11-19T23:08:14.947Z,90.67
2017-11-19T23:09:14.874Z,90.76
2017-11-19T23:10:14.852Z,90.95
2017-11-19T23:11:14.835Z,91.14
2017-11-19T23:12:14.830Z,90.95
2017-11-19T23:13:14.855Z,90.76
2017-11-19T23:14:14.798Z,91.05
2017-11-19T23:15:14.780Z,91.24
2017-11-19T23:16:14.711Z,91.05
2017-11-19T23:17:14.694Z,91.05
2017-11-19T23:18:14.667Z,90.67
2017-11-19T23:19:14.640Z,91.05
2017-11-19T23:20:14.675Z,91.42
2017-11-19T23:21:14.598Z,91.52
2017-11-19T23:22:14.575Z,91.14
2017-11-19T23:23:14.551Z,91.05
2017-11-19T23:24:14.534Z,91.05
2017-11-19T23:25:14.552Z,91.14
2017-11-19T23:26:14.487Z,91.52
2017-11-19T23:27:14.458Z,91.33
2017-11-19T23:28:14.434Z,91.52
2017-11-19T23:29:14.421Z,91.24
2017-11-19T23:30:14.449Z,91.24
2017-11-19T23:31:14.389Z,91.24
2017-11-19T23:32:14.402Z,91.05
2017-11-19T23:33:14.347Z,91.66
2017-11-19T23:34:14.316Z,91.52
2017-11-19T23:35:14.292Z,91.42
2017-11-19T23:39:58.127Z,91.19
2017-11-19T23:40:58.057Z,91.28
2017-11-19T23:41:58.070Z,91.75
2017-11-19T23:42:58.006Z,91.28
2017-11-19T23:43:58.021Z,91.28
2017-11-19T23:44:57.963Z,91.28
2017-11-19T23:45:57.942Z,91.47
2017-11-19T23:46:57.919Z,92.14
2017-11-19T23:48:08.665Z,91.00
2017-11-19T23:53:29.023Z,91.85
2017-11-19T23:54:28.948Z,91.85
2017-11-19T23:55:28.976Z,91.85
2017-11-19T23:56:28.900Z,91.75
2017-11-19T23:57:28.883Z,91.28
2017-11-19T23:58:28.856Z,91.75
2017-11-19T23:59:28.825Z,91.28
